Time;durP1;ratioP1;P1;durP2;ratioP2;P2;SDS_P1;SDS_P2;PMS_P1;PMS_P2;Temp;Humidity;BMP_temperature;BMP_pressure;BME280_temperature;BME280_humidity;BME280_pressure;Samples;Min_cycle;Max_cycle;Signal;HPM_P1;HPM_P2
2022/12/05 00:00:54;;;;;;;;;;;5.10;99.10;;;;;;4957611;29;1200;-71
2022/12/05 00:03:22;;;;;;;;;;;5.30;98.80;;;;;;4957367;28;1261;-71
2022/12/05 00:05:50;;;;;;;;;;;5.10;99.20;;;;;;4958018;29;1007;-70
2022/12/05 00:08:18;;;;;;;;;;;5.20;99.30;;;;;;4957317;29;1157;-71
2022/12/05 00:10:45;;;;;;;;;;;5.20;99.20;;;;;;4957272;29;1370;-71
2022/12/05 00:13:13;;;;;;;;;;;5.20;99.40;;;;;;4957766;28;1379;-71
2022/12/05 00:15:41;;;;;;;;;;;5.20;99.40;;;;;;4957736;29;1017;-70
2022/12/05 00:18:09;;;;;;;;;;;5.10;99.60;;;;;;4956857;29;1918;-71
2022/12/05 00:20:37;;;;;;;;;;;5.40;99.40;;;;;;4957504;29;1033;-70
2022/12/05 00:23:05;;;;;;;;;;;5.20;99.50;;;;;;4957640;28;1295;-71
2022/12/05 00:25:32;;;;;;;;;;;5.10;99.60;;;;;;4958427;29;1071;-70
2022/12/05 00:28:00;;;;;;;;;;;5.00;99.40;;;;;;4957202;29;1158;-70
2022/12/05 00:30:27;;;;;;;;;;;5.20;99.30;;;;;;4957655;29;1276;-70
2022/12/05 00:32:55;;;;;;;;;;;5.10;99.50;;;;;;4957751;28;1286;-71
2022/12/05 00:35:24;;;;;;;;;;;5.20;99.00;;;;;;4957519;29;1670;-71
2022/12/05 00:37:52;;;;;;;;;;;5.10;99.10;;;;;;4957534;29;1054;-72
2022/12/05 00:40:19;;;;;;;;;;;5.20;99.10;;;;;;4957465;29;1965;-73
2022/12/05 00:42:47;;;;;;;;;;;5.30;98.90;;;;;;4956506;28;1395;-71
2022/12/05 00:45:19;;;;;;;;;;;5.30;99.20;;;;;;4955216;29;1457;-70
2022/12/05 00:47:46;;;;;;;;;;;5.20;99.40;;;;;;4955929;29;1039;-70
2022/12/05 00:50:14;;;;;;;;;;;5.20;99.20;;;;;;4956081;29;1213;-70
2022/12/05 00:52:43;;;;;;;;;;;5.10;99.40;;;;;;4956753;28;1357;-70
2022/12/05 00:55:10;;;;;;;;;;;5.10;99.30;;;;;;4956812;29;1018;-70
2022/12/05 00:57:38;;;;;;;;;;;5.10;99.60;;;;;;4956361;28;1118;-71
2022/12/05 01:00:06;;;;;;;;;;;5.20;99.40;;;;;;4954732;29;1968;-71
2022/12/05 01:02:34;;;;;;;;;;;5.10;99.50;;;;;;4955782;28;1371;-71
2022/12/05 01:05:01;;;;;;;;;;;5.10;99.80;;;;;;4956437;29;1524;-72
2022/12/05 01:07:29;;;;;;;;;;;5.20;99.40;;;;;;4956771;29;1527;-70
2022/12/05 01:09:58;;;;;;;;;;;5.30;99.20;;;;;;4956632;29;2094;-70
2022/12/05 01:12:26;;;;;;;;;;;5.40;99.10;;;;;;4955406;28;1304;-69
2022/12/05 01:14:54;;;;;;;;;;;5.30;99.40;;;;;;4956413;29;1535;-69
2022/12/05 01:17:22;;;;;;;;;;;5.30;99.40;;;;;;4955996;29;1105;-70
2022/12/05 01:19:49;;;;;;;;;;;5.30;99.50;;;;;;4956322;29;1911;-70
2022/12/05 01:22:17;;;;;;;;;;;5.30;99.50;;;;;;4956500;28;1304;-70
2022/12/05 01:24:44;;;;;;;;;;;5.30;99.50;;;;;;4956313;29;1225;-70
2022/12/05 01:27:13;;;;;;;;;;;5.30;99.70;;;;;;4956063;29;1367;-71
2022/12/05 01:29:41;;;;;;;;;;;5.40;99.60;;;;;;4956310;29;978;-70
2022/12/05 01:32:09;;;;;;;;;;;5.30;99.90;;;;;;4955856;28;1288;-70
2022/12/05 01:34:36;;;;;;;;;;;5.30;99.90;;;;;;4956048;29;955;-70
2022/12/05 01:37:04;;;;;;;;;;;5.30;99.80;;;;;;4955663;29;1012;-70
2022/12/05 01:39:32;;;;;;;;;;;5.20;99.90;;;;;;4956432;29;1985;-70
2022/12/05 01:41:59;;;;;;;;;;;5.40;99.90;;;;;;4955740;28;1406;-72
2022/12/05 01:44:45;;;;;;;;;;;5.30;99.90;;;;;;4955981;29;1031;-70
2022/12/05 01:47:15;;;;;;;;;;;5.40;99.80;;;;;;4955735;29;1011;-70
2022/12/05 01:49:43;;;;;;;;;;;5.30;99.90;;;;;;4955568;29;1174;-71
2022/12/05 01:52:14;;;;;;;;;;;5.40;99.70;;;;;;4954963;28;1391;-70
2022/12/05 01:54:43;;;;;;;;;;;5.50;99.70;;;;;;4958096;29;1104;-70
2022/12/05 01:57:11;;;;;;;;;;;5.50;99.70;;;;;;4956464;29;1633;-70
2022/12/05 01:59:41;;;;;;;;;;;5.50;99.70;;;;;;4955813;29;1989;-71
2022/12/05 02:02:09;;;;;;;;;;;5.50;99.80;;;;;;4955719;28;1268;-70
2022/12/05 02:04:46;;;;;;;;;;;5.40;99.90;;;;;;4955078;29;1039;-70
2022/12/05 02:07:13;;;;;;;;;;;5.60;99.80;;;;;;4954955;29;1087;-70
2022/12/05 02:09:41;;;;;;;;;;;5.50;99.80;;;;;;4956156;28;1533;-70
2022/12/05 02:12:09;;;;;;;;;;;5.50;99.80;;;;;;4955778;28;1946;-70
2022/12/05 02:17:14;;;;;;;;;;;5.60;99.90;;;;;;5375840;23;1588;-85
2022/12/05 02:19:55;;;;;;;;;;;5.60;99.60;;;;;;4938232;29;1916;-85
2022/12/05 02:22:31;;;;;;;;;;;5.60;99.90;;;;;;4941525;29;1045;-83
2022/12/05 02:25:06;;;;;;;;;;;5.60;99.90;;;;;;4942323;29;1060;-86
2022/12/05 02:27:41;;;;;;;;;;;5.60;99.90;;;;;;4939192;29;1349;-83
2022/12/05 02:30:11;;;;;;;;;;;5.60;99.90;;;;;;4936419;29;951;-84
2022/12/05 02:32:52;;;;;;;;;;;5.60;99.90;;;;;;4940259;29;1587;-84
2022/12/05 02:35:25;;;;;;;;;;;5.70;99.90;;;;;;4939760;29;1016;-84
2022/12/05 02:37:57;;;;;;;;;;;5.70;99.90;;;;;;4938356;29;1502;-85
2022/12/05 02:40:27;;;;;;;;;;;5.70;99.90;;;;;;4940131;29;1981;-85
2022/12/05 02:42:58;;;;;;;;;;;5.70;99.90;;;;;;4940160;29;1030;-85
2022/12/05 02:45:29;;;;;;;;;;;5.60;99.90;;;;;;4940459;29;1379;-84
2022/12/05 02:47:57;;;;;;;;;;;5.70;99.90;;;;;;4939492;29;1372;-82
2022/12/05 02:50:27;;;;;;;;;;;5.60;99.90;;;;;;4940529;29;1382;-84
2022/12/05 02:52:56;;;;;;;;;;;5.60;99.90;;;;;;4939842;29;1081;-84
2022/12/05 02:55:26;;;;;;;;;;;5.60;99.90;;;;;;4943508;29;1403;-86
2022/12/05 02:57:56;;;;;;;;;;;5.60;99.90;;;;;;4942794;29;1329;-82
2022/12/05 03:00:24;;;;;;;;;;;5.60;99.90;;;;;;4939218;29;2035;-87
2022/12/05 03:02:56;;;;;;;;;;;5.60;99.90;;;;;;4949089;29;1045;-83
2022/12/05 03:05:29;;;;;;;;;;;5.60;99.90;;;;;;4953397;29;1473;-84
2022/12/05 03:07:59;;;;;;;;;;;5.50;99.90;;;;;;4938966;29;1496;-83
2022/12/05 03:10:28;;;;;;;;;;;5.50;99.90;;;;;;4941129;29;926;-84
2022/12/05 03:12:57;;;;;;;;;;;5.40;99.90;;;;;;4943582;29;951;-85
2022/12/05 03:15:28;;;;;;;;;;;5.40;99.90;;;;;;4939883;29;1042;-85
2022/12/05 03:18:03;;;;;;;;;;;5.50;99.90;;;;;;4942891;29;1428;-85
2022/12/05 03:20:33;;;;;;;;;;;5.60;99.90;;;;;;4940483;29;1895;-84
2022/12/05 03:23:03;;;;;;;;;;;5.50;99.90;;;;;;4941937;29;1383;-85
2022/12/05 03:25:36;;;;;;;;;;;5.50;99.90;;;;;;4944057;29;1037;-84
2022/12/05 03:28:05;;;;;;;;;;;5.70;99.90;;;;;;4943052;29;1432;-83
2022/12/05 03:30:35;;;;;;;;;;;5.60;99.90;;;;;;4943537;29;1019;-86
2022/12/05 03:33:07;;;;;;;;;;;5.60;99.90;;;;;;4942742;29;1694;-83
2022/12/05 03:35:37;;;;;;;;;;;5.80;99.90;;;;;;4942582;29;1354;-84
2022/12/05 03:38:08;;;;;;;;;;;5.70;99.90;;;;;;4942989;29;1549;-83
2022/12/05 03:40:40;;;;;;;;;;;5.50;99.90;;;;;;4942230;29;1898;-83
2022/12/05 03:43:10;;;;;;;;;;;5.50;99.90;;;;;;4943220;29;1406;-83
2022/12/05 03:45:41;;;;;;;;;;;5.50;99.90;;;;;;4944919;29;1098;-82
2022/12/05 03:48:15;;;;;;;;;;;5.60;99.90;;;;;;4955999;29;1401;-84
2022/12/05 03:50:45;;;;;;;;;;;5.60;99.90;;;;;;4960088;29;1116;-84
2022/12/05 03:53:15;;;;;;;;;;;5.80;99.90;;;;;;4942524;29;1140;-85
2022/12/05 03:55:50;;;;;;;;;;;5.80;99.90;;;;;;4941978;29;1553;-85
2022/12/05 03:58:22;;;;;;;;;;;5.70;99.90;;;;;;4940907;29;1489;-84
2022/12/05 04:00:51;;;;;;;;;;;5.80;99.90;;;;;;4939740;29;1898;-86
2022/12/05 04:03:23;;;;;;;;;;;5.80;99.90;;;;;;4941411;29;987;-85
2022/12/05 04:05:52;;;;;;;;;;;5.90;99.90;;;;;;4941882;29;1521;-80
2022/12/05 04:08:22;;;;;;;;;;;5.80;99.90;;;;;;4944026;29;1554;-84
2022/12/05 04:10:51;;;;;;;;;;;5.80;99.90;;;;;;4951637;28;968;-81
2022/12/05 04:13:22;;;;;;;;;;;5.70;99.90;;;;;;4958682;28;1543;-84
2022/12/05 04:18:41;;;;;;;;;;;5.70;99.90;;;;;;4943489;29;1408;-86
2022/12/05 04:26:54;;;;;;;;;;;5.70;99.90;;;;;;4944491;29;951;-82
2022/12/05 04:29:26;;;;;;;;;;;5.80;99.90;;;;;;4942959;29;1524;-83
2022/12/05 04:31:58;;;;;;;;;;;5.70;99.90;;;;;;4943003;29;1172;-82
2022/12/05 04:34:29;;;;;;;;;;;5.70;99.90;;;;;;4940864;29;1050;-82
2022/12/05 04:36:59;;;;;;;;;;;5.70;99.90;;;;;;4936724;29;1074;-82
2022/12/05 04:39:28;;;;;;;;;;;5.70;99.90;;;;;;4940922;29;1415;-83
2022/12/05 04:41:58;;;;;;;;;;;5.70;99.90;;;;;;4943060;29;1982;-86
2022/12/05 04:44:29;;;;;;;;;;;5.80;99.90;;;;;;4943207;29;1182;-86
2022/12/05 04:46:59;;;;;;;;;;;5.80;99.90;;;;;;4940695;29;1022;-83
2022/12/05 04:49:29;;;;;;;;;;;5.80;99.90;;;;;;4942670;29;1317;-83
2022/12/05 04:51:59;;;;;;;;;;;5.70;99.90;;;;;;4942792;29;998;-86
2022/12/05 04:54:28;;;;;;;;;;;5.70;99.90;;;;;;4941684;29;1400;-84
2022/12/05 04:56:59;;;;;;;;;;;5.70;99.90;;;;;;4943058;29;999;-84
2022/12/05 04:59:28;;;;;;;;;;;5.70;99.90;;;;;;4942677;29;1722;-83
2022/12/05 05:01:58;;;;;;;;;;;5.60;99.90;;;;;;4942081;29;2077;-84
2022/12/05 05:04:27;;;;;;;;;;;5.70;99.90;;;;;;4943947;29;1049;-85
2022/12/05 05:06:56;;;;;;;;;;;5.60;99.90;;;;;;4942050;29;963;-83
2022/12/05 05:09:23;;;;;;;;;;;5.60;99.90;;;;;;4942542;29;1368;-85
2022/12/05 05:11:51;;;;;;;;;;;5.60;99.90;;;;;;4942105;29;990;-85
2022/12/05 05:14:19;;;;;;;;;;;5.60;99.90;;;;;;4944236;29;1032;-84
2022/12/05 05:16:47;;;;;;;;;;;5.60;99.90;;;;;;4945834;29;1250;-84
2022/12/05 05:19:15;;;;;;;;;;;5.40;99.90;;;;;;4956182;28;1691;-85
2022/12/05 05:21:42;;;;;;;;;;;5.60;99.90;;;;;;4949931;29;1887;-85
2022/12/05 05:24:11;;;;;;;;;;;5.60;99.90;;;;;;4942271;29;1079;-86
2022/12/05 05:26:40;;;;;;;;;;;5.70;99.90;;;;;;4941116;29;1042;-83
2022/12/05 05:29:08;;;;;;;;;;;5.70;99.90;;;;;;4941356;29;1528;-84
2022/12/05 05:31:36;;;;;;;;;;;5.70;99.90;;;;;;4942067;29;1590;-83
2022/12/05 05:34:04;;;;;;;;;;;5.50;99.90;;;;;;4941525;29;1079;-85
2022/12/05 05:36:37;;;;;;;;;;;5.60;99.90;;;;;;4931203;29;1018;-84
2022/12/05 05:39:06;;;;;;;;;;;5.60;99.90;;;;;;4940550;29;1306;-86
2022/12/05 05:41:49;;;;;;;;;;;5.80;99.90;;;;;;4941895;29;1915;-83
2022/12/05 05:44:19;;;;;;;;;;;5.50;99.90;;;;;;4939414;29;1150;-83
2022/12/05 05:46:48;;;;;;;;;;;5.50;99.90;;;;;;4942080;29;1101;-87
2022/12/05 05:49:15;;;;;;;;;;;5.40;99.90;;;;;;4944237;29;1603;-88
2022/12/05 05:51:43;;;;;;;;;;;5.20;99.90;;;;;;4939635;29;1572;-81
2022/12/05 05:54:11;;;;;;;;;;;5.30;99.90;;;;;;4941846;29;1680;-84
2022/12/05 05:56:39;;;;;;;;;;;5.30;99.90;;;;;;4941864;29;1118;-86
2022/12/05 05:59:07;;;;;;;;;;;5.30;99.90;;;;;;4939521;29;1634;-83
2022/12/05 06:01:39;;;;;;;;;;;5.30;99.90;;;;;;4942801;29;2406;-90
2022/12/05 06:04:07;;;;;;;;;;;5.30;99.90;;;;;;4944471;29;1214;-85
2022/12/05 06:06:35;;;;;;;;;;;5.30;99.90;;;;;;4940465;29;915;-87
2022/12/05 06:09:05;;;;;;;;;;;5.60;99.90;;;;;;4940268;29;2632;-85
2022/12/05 06:11:33;;;;;;;;;;;5.40;99.90;;;;;;4940159;29;1559;-87
2022/12/05 06:14:04;;;;;;;;;;;5.40;99.90;;;;;;4940699;29;1035;-90
2022/12/05 06:16:32;;;;;;;;;;;5.40;99.90;;;;;;4939299;29;1151;-87
2022/12/05 06:19:01;;;;;;;;;;;5.30;99.90;;;;;;4938722;29;1340;-88
2022/12/05 06:21:29;;;;;;;;;;;5.10;99.90;;;;;;4943759;29;1906;-86
2022/12/05 06:23:57;;;;;;;;;;;5.20;99.90;;;;;;4939315;29;1038;-86
2022/12/05 06:26:25;;;;;;;;;;;5.30;99.90;;;;;;4958734;29;1694;-89
2022/12/05 06:28:53;;;;;;;;;;;5.40;99.40;;;;;;4943894;29;1196;-87
2022/12/05 06:31:22;;;;;;;;;;;5.30;99.90;;;;;;4941733;29;983;-88
2022/12/05 06:33:50;;;;;;;;;;;5.60;99.90;;;;;;4941638;29;1679;-88
2022/12/05 06:36:21;;;;;;;;;;;5.60;99.30;;;;;;4939006;29;1451;-88
2022/12/05 06:38:49;;;;;;;;;;;5.40;99.90;;;;;;4941505;29;1546;-88
2022/12/05 06:41:18;;;;;;;;;;;5.40;99.30;;;;;;4941642;29;1549;-87
2022/12/05 06:43:46;;;;;;;;;;;5.30;99.80;;;;;;4949157;29;1914;-89
2022/12/05 06:46:14;;;;;;;;;;;5.40;99.40;;;;;;4956503;29;1550;-88
2022/12/05 06:48:42;;;;;;;;;;;5.20;99.60;;;;;;4942055;29;1713;-88
2022/12/05 06:51:11;;;;;;;;;;;5.30;99.00;;;;;;4942735;29;1639;-87
2022/12/05 06:53:41;;;;;;;;;;;5.20;99.90;;;;;;4941851;29;1022;-89
2022/12/05 06:56:11;;;;;;;;;;;4.90;99.20;;;;;;4943036;29;1647;-88
2022/12/05 06:58:40;;;;;;;;;;;5.00;99.90;;;;;;4940922;29;1703;-86
2022/12/05 07:03:56;;;;;;;;;;;5.00;99.90;;;;;;4942736;29;1907;-89
2022/12/05 07:06:24;;;;;;;;;;;5.10;99.00;;;;;;4938778;29;1614;-87
2022/12/05 07:08:53;;;;;;;;;;;5.00;98.80;;;;;;4940879;29;1379;-90
2022/12/05 07:11:21;;;;;;;;;;;5.10;99.10;;;;;;4930741;29;1002;-88
2022/12/05 07:13:54;;;;;;;;;;;5.20;98.60;;;;;;4942827;29;1546;-89
2022/12/05 07:16:22;;;;;;;;;;;5.10;98.70;;;;;;4942746;29;1105;-88
2022/12/05 07:18:50;;;;;;;;;;;5.20;99.10;;;;;;4941386;29;1522;-88
2022/12/05 07:21:20;;;;;;;;;;;5.10;99.10;;;;;;4943241;29;1433;-89
2022/12/05 07:23:48;;;;;;;;;;;5.10;98.90;;;;;;4943182;29;1960;-87
2022/12/05 07:26:18;;;;;;;;;;;5.10;99.10;;;;;;4937125;29;1522;-88
2022/12/05 07:28:46;;;;;;;;;;;5.40;98.90;;;;;;4939933;29;1542;-87
2022/12/05 07:31:15;;;;;;;;;;;5.20;98.50;;;;;;4954160;29;822;-88
2022/12/05 07:33:43;;;;;;;;;;;5.20;97.90;;;;;;4952764;29;1593;-86
2022/12/05 07:36:12;;;;;;;;;;;5.00;98.50;;;;;;4942350;29;1728;-88
2022/12/05 07:38:40;;;;;;;;;;;4.90;98.30;;;;;;4943755;29;1562;-90
2022/12/05 07:41:10;;;;;;;;;;;5.00;98.50;;;;;;4944027;29;1498;-90
2022/12/05 07:43:42;;;;;;;;;;;4.90;98.00;;;;;;4942836;29;2565;-90
2022/12/05 07:46:11;;;;;;;;;;;5.00;97.90;;;;;;4945089;29;2565;-91
2022/12/05 07:48:39;;;;;;;;;;;5.00;97.50;;;;;;4944680;29;1568;-89
2022/12/05 07:51:08;;;;;;;;;;;5.10;97.70;;;;;;4944774;29;1585;-90
2022/12/05 07:53:37;;;;;;;;;;;4.90;97.90;;;;;;4945559;29;1737;-89
2022/12/05 07:56:06;;;;;;;;;;;4.70;98.10;;;;;;4938227;29;1615;-89
2022/12/05 07:58:35;;;;;;;;;;;4.80;97.80;;;;;;4948857;29;1379;-87
2022/12/05 08:01:07;;;;;;;;;;;4.80;98.00;;;;;;4949458;29;1561;-89
2022/12/05 08:03:36;;;;;;;;;;;5.00;97.60;;;;;;4947231;29;2001;-89
2022/12/05 08:06:04;;;;;;;;;;;4.90;97.40;;;;;;4938843;29;1042;-90
2022/12/05 08:08:32;;;;;;;;;;;4.80;97.40;;;;;;4941165;29;1254;-89
2022/12/05 08:11:02;;;;;;;;;;;5.00;97.40;;;;;;4946585;29;1400;-89
2022/12/05 08:13:30;;;;;;;;;;;4.90;97.60;;;;;;4945355;29;1529;-89
2022/12/05 08:16:00;;;;;;;;;;;4.80;97.10;;;;;;4946534;29;1573;-88
2022/12/05 08:18:32;;;;;;;;;;;4.50;97.60;;;;;;4945638;29;1661;-89
2022/12/05 08:21:02;;;;;;;;;;;4.70;97.50;;;;;;4945862;29;1581;-88
2022/12/05 08:23:31;;;;;;;;;;;4.90;97.50;;;;;;4944935;29;1993;-90
2022/12/05 08:26:01;;;;;;;;;;;4.90;97.10;;;;;;4936410;29;2727;-89
2022/12/05 08:28:29;;;;;;;;;;;5.00;97.00;;;;;;4945579;29;1606;-90
2022/12/05 08:31:02;;;;;;;;;;;5.10;97.10;;;;;;4945600;29;1411;-90
2022/12/05 08:33:31;;;;;;;;;;;5.20;97.20;;;;;;4942703;29;1692;-89
2022/12/05 08:36:02;;;;;;;;;;;4.90;96.90;;;;;;4937206;29;2518;-89
2022/12/05 08:38:30;;;;;;;;;;;4.90;97.10;;;;;;4962969;28;1703;-89
2022/12/05 08:41:00;;;;;;;;;;;4.90;97.10;;;;;;4947548;29;1658;-89
2022/12/05 08:43:28;;;;;;;;;;;5.00;96.90;;;;;;4945426;29;1962;-88
2022/12/05 08:45:58;;;;;;;;;;;5.00;96.50;;;;;;4945690;29;1145;-88
2022/12/05 08:48:27;;;;;;;;;;;4.80;96.70;;;;;;4946928;29;1410;-91
2022/12/05 08:51:02;;;;;;;;;;;4.80;97.40;;;;;;4946580;29;1026;-88
2022/12/05 08:53:30;;;;;;;;;;;4.90;97.20;;;;;;4942926;29;1404;-90
2022/12/05 08:56:00;;;;;;;;;;;5.00;96.60;;;;;;4942895;29;1535;-89
2022/12/05 08:58:28;;;;;;;;;;;4.80;97.10;;;;;;4950250;29;1660;-89
2022/12/05 09:01:05;;;;;;;;;;;4.80;97.20;;;;;;4949285;29;1018;-88
2022/12/05 09:03:33;;;;;;;;;;;4.80;97.10;;;;;;4948800;29;1907;-87
2022/12/05 09:06:09;;;;;;;;;;;4.90;96.90;;;;;;4942480;29;1537;-89
2022/12/05 09:08:37;;;;;;;;;;;4.70;97.70;;;;;;4929583;29;1514;-89
2022/12/05 09:11:06;;;;;;;;;;;4.60;97.70;;;;;;4929623;29;1018;-90
2022/12/05 09:13:35;;;;;;;;;;;4.50;98.10;;;;;;4930827;29;1550;-89
2022/12/05 09:16:06;;;;;;;;;;;4.50;98.20;;;;;;4927925;29;1595;-89
2022/12/05 09:18:34;;;;;;;;;;;4.50;98.50;;;;;;4928254;29;1702;-89
2022/12/05 09:21:05;;;;;;;;;;;4.50;97.80;;;;;;4927679;29;1552;-90
2022/12/05 09:23:35;;;;;;;;;;;4.50;98.80;;;;;;4928836;29;1899;-89
2022/12/05 09:26:04;;;;;;;;;;;4.50;98.30;;;;;;4925997;29;1732;-90
2022/12/05 09:28:33;;;;;;;;;;;4.60;98.30;;;;;;4941521;29;1553;-90
2022/12/05 09:31:02;;;;;;;;;;;4.50;98.80;;;;;;4949208;29;1675;-89
2022/12/05 09:33:31;;;;;;;;;;;4.60;98.60;;;;;;4947830;29;1683;-90
2022/12/05 09:36:08;;;;;;;;;;;4.70;99.00;;;;;;4949325;29;1530;-92
2022/12/05 09:38:52;;;;;;;;;;;4.80;98.50;;;;;;4948586;29;1269;-90
2022/12/05 09:44:41;;;;;;;;;;;4.60;98.50;;;;;;4961813;28;1880;-91
2022/12/05 09:47:13;;;;;;;;;;;4.20;98.30;;;;;;4955189;29;1556;-91
2022/12/05 09:49:46;;;;;;;;;;;4.70;98.50;;;;;;4951266;29;1602;-90
2022/12/05 09:52:19;;;;;;;;;;;4.60;98.50;;;;;;4949957;29;1726;-91
2022/12/05 09:54:50;;;;;;;;;;;4.90;98.70;;;;;;4955276;29;1699;-91
2022/12/05 09:57:24;;;;;;;;;;;4.70;98.30;;;;;;4949311;29;1534;-89
2022/12/05 10:00:02;;;;;;;;;;;4.90;98.60;;;;;;4947739;29;1638;-91
2022/12/05 10:02:35;;;;;;;;;;;4.80;98.50;;;;;;4949737;29;1541;-92
2022/12/05 10:05:05;;;;;;;;;;;4.70;98.40;;;;;;4947998;29;1910;-90
2022/12/05 10:07:36;;;;;;;;;;;4.60;98.40;;;;;;4949017;29;1415;-91
2022/12/05 10:10:18;;;;;;;;;;;4.50;99.10;;;;;;4947904;29;1629;-90
2022/12/05 10:12:52;;;;;;;;;;;4.40;98.50;;;;;;4947589;29;1771;-91
2022/12/05 10:15:27;;;;;;;;;;;4.40;98.80;;;;;;4950386;29;1557;-92
2022/12/05 10:17:57;;;;;;;;;;;4.60;98.80;;;;;;4968837;23;3629;-70
2022/12/05 10:20:26;;;;;;;;;;;4.70;98.00;;;;;;4945112;29;2508;-66
2022/12/05 10:22:56;;;;;;;;;;;4.60;98.40;;;;;;4944383;29;2681;-65
2022/12/05 10:25:27;;;;;;;;;;;4.70;98.50;;;;;;4943847;29;1956;-65
2022/12/05 10:27:57;;;;;;;;;;;4.80;97.80;;;;;;4946043;29;2376;-66
2022/12/05 10:30:25;;;;;;;;;;;4.70;98.40;;;;;;4945153;28;2669;-65
2022/12/05 10:32:55;;;;;;;;;;;4.70;98.20;;;;;;4945630;29;1378;-64
2022/12/05 10:35:23;;;;;;;;;;;4.70;98.50;;;;;;4936503;29;1099;-65
2022/12/05 10:37:52;;;;;;;;;;;4.60;98.50;;;;;;4943116;29;1078;-65
2022/12/05 10:40:20;;;;;;;;;;;4.80;98.70;;;;;;4943319;29;2310;-65
2022/12/05 10:42:50;;;;;;;;;;;4.80;97.80;;;;;;4944395;29;2570;-64
2022/12/05 10:45:21;;;;;;;;;;;4.80;97.70;;;;;;4943033;28;1910;-65
2022/12/05 10:47:49;;;;;;;;;;;4.90;98.10;;;;;;4944524;29;2348;-65
2022/12/05 10:50:20;;;;;;;;;;;5.00;97.60;;;;;;4945748;29;2388;-65
2022/12/05 10:52:47;;;;;;;;;;;5.00;98.10;;;;;;4947345;29;2305;-65
2022/12/05 10:55:17;;;;;;;;;;;5.00;97.90;;;;;;4946173;29;2567;-66
2022/12/05 10:57:48;;;;;;;;;;;5.00;97.90;;;;;;4944319;29;1515;-66
2022/12/05 11:00:21;;;;;;;;;;;5.20;97.80;;;;;;4943096;29;1136;-66
2022/12/05 11:02:49;;;;;;;;;;;5.10;97.30;;;;;;4939420;28;2411;-66
2022/12/05 11:05:26;;;;;;;;;;;5.00;97.40;;;;;;4944872;29;2574;-66
2022/12/05 11:07:56;;;;;;;;;;;5.10;97.70;;;;;;4947981;29;1923;-67
2022/12/05 11:10:26;;;;;;;;;;;5.20;97.60;;;;;;4945872;29;1077;-66
2022/12/05 11:12:55;;;;;;;;;;;5.00;97.40;;;;;;4948950;28;2441;-66
2022/12/05 11:15:24;;;;;;;;;;;4.80;97.00;;;;;;4942761;29;2578;-68
2022/12/05 11:17:54;;;;;;;;;;;4.80;97.30;;;;;;4941929;29;2507;-67
2022/12/05 11:20:38;;;;;;;;;;;4.80;98.00;;;;;;4939029;29;1471;-67
2022/12/05 11:23:17;;;;;;;;;;;4.80;97.40;;;;;;4943059;29;2419;-68
2022/12/05 11:25:45;;;;;;;;;;;4.70;97.70;;;;;;4946820;29;2840;-66
2022/12/05 11:28:30;;;;;;;;;;;4.70;97.80;;;;;;4941569;29;2329;-66
2022/12/05 11:30:59;;;;;;;;;;;4.70;97.60;;;;;;4941807;29;2454;-67
2022/12/05 11:33:29;;;;;;;;;;;4.70;97.70;;;;;;4942814;28;1387;-67
2022/12/05 11:35:59;;;;;;;;;;;4.80;98.10;;;;;;4942039;28;1378;-66
2022/12/05 11:38:27;;;;;;;;;;;4.90;97.50;;;;;;4941377;29;2627;-67
2022/12/05 11:40:59;;;;;;;;;;;5.00;98.10;;;;;;4941064;28;2631;-66
2022/12/05 11:43:46;;;;;;;;;;;4.90;97.60;;;;;;4945286;29;1373;-66
2022/12/05 11:46:18;;;;;;;;;;;4.90;98.00;;;;;;4952621;29;2010;-66
2022/12/05 11:49:00;;;;;;;;;;;4.80;98.10;;;;;;4947775;29;1348;-66
2022/12/05 11:51:35;;;;;;;;;;;4.80;98.70;;;;;;4951075;29;1618;-66
2022/12/05 11:54:15;;;;;;;;;;;4.80;98.60;;;;;;4949229;28;1605;-66
2022/12/05 11:56:44;;;;;;;;;;;4.70;98.90;;;;;;4946574;29;1101;-66
2022/12/05 11:59:21;;;;;;;;;;;4.90;99.70;;;;;;4946916;29;1578;-66
2022/12/05 12:01:55;;;;;;;;;;;5.00;99.60;;;;;;4946471;29;1050;-67
2022/12/05 12:04:36;;;;;;;;;;;5.00;99.00;;;;;;4947731;29;1915;-67
2022/12/05 12:07:12;;;;;;;;;;;5.00;98.50;;;;;;4950383;29;2433;-66
2022/12/05 12:09:43;;;;;;;;;;;5.10;99.20;;;;;;4945989;29;1389;-68
2022/12/05 12:12:17;;;;;;;;;;;4.90;98.50;;;;;;4939974;29;1271;-68
2022/12/05 12:14:47;;;;;;;;;;;4.90;98.40;;;;;;4947171;29;1035;-66
2022/12/05 12:17:19;;;;;;;;;;;4.90;98.60;;;;;;4948710;29;1034;-66
2022/12/05 12:19:54;;;;;;;;;;;5.00;98.80;;;;;;4945736;28;1526;-66
2022/12/05 12:22:28;;;;;;;;;;;5.00;99.20;;;;;;4942678;29;1593;-66
2022/12/05 12:25:02;;;;;;;;;;;5.10;99.10;;;;;;4944597;29;1910;-65
2022/12/05 12:27:36;;;;;;;;;;;5.00;99.10;;;;;;4944550;29;1848;-66
2022/12/05 12:30:06;;;;;;;;;;;5.00;98.70;;;;;;4947307;29;1597;-65
2022/12/05 12:32:38;;;;;;;;;;;5.10;98.60;;;;;;4945746;29;1831;-65
2022/12/05 12:35:24;;;;;;;;;;;5.10;99.00;;;;;;4945866;29;1299;-65
2022/12/05 12:37:59;;;;;;;;;;;5.10;98.70;;;;;;4940505;29;1668;-65
2022/12/05 12:40:30;;;;;;;;;;;4.90;98.90;;;;;;4944989;28;1716;-66
2022/12/05 12:43:05;;;;;;;;;;;5.00;98.70;;;;;;4945089;28;1787;-66
2022/12/05 12:45:44;;;;;;;;;;;5.00;99.00;;;;;;4941000;29;1914;-65
2022/12/05 12:48:21;;;;;;;;;;;5.10;98.60;;;;;;4944874;29;1660;-66
2022/12/05 12:50:51;;;;;;;;;;;5.10;98.40;;;;;;4946448;28;1684;-65
2022/12/05 12:53:28;;;;;;;;;;;4.90;98.20;;;;;;4946971;29;1700;-65
2022/12/05 12:56:01;;;;;;;;;;;4.80;97.80;;;;;;4947682;29;1109;-65
2022/12/05 12:58:39;;;;;;;;;;;4.90;98.90;;;;;;4943382;29;1530;-66
2022/12/05 13:01:11;;;;;;;;;;;4.80;98.10;;;;;;4944716;29;1727;-66
2022/12/05 13:03:41;;;;;;;;;;;4.80;98.30;;;;;;4945754;28;1740;-65
2022/12/05 13:06:16;;;;;;;;;;;4.80;98.70;;;;;;4940883;29;1902;-65
2022/12/05 13:08:48;;;;;;;;;;;5.00;98.40;;;;;;4944993;29;1700;-67
2022/12/05 13:11:17;;;;;;;;;;;4.90;98.00;;;;;;4945050;29;1439;-66
2022/12/05 13:13:47;;;;;;;;;;;4.80;98.50;;;;;;4945104;28;1720;-68
2022/12/05 13:16:21;;;;;;;;;;;4.90;98.40;;;;;;4945848;29;1648;-67
2022/12/05 13:18:49;;;;;;;;;;;4.90;98.80;;;;;;4946329;29;1703;-67
2022/12/05 13:21:18;;;;;;;;;;;5.00;98.30;;;;;;4944348;28;1620;-66
2022/12/05 13:23:48;;;;;;;;;;;5.00;97.90;;;;;;4943293;29;1692;-65
2022/12/05 13:26:16;;;;;;;;;;;5.00;98.30;;;;;;4945981;29;1891;-67
2022/12/05 13:28:49;;;;;;;;;;;4.90;98.90;;;;;;4944692;29;1747;-66
2022/12/05 13:31:18;;;;;;;;;;;5.00;98.20;;;;;;4947110;28;1466;-67
2022/12/05 13:33:47;;;;;;;;;;;5.10;98.10;;;;;;4951132;28;1486;-66
2022/12/05 13:44:37;;;;;;;;;;;4.70;97.80;;;;;;4945208;29;1090;-68
2022/12/05 13:47:07;;;;;;;;;;;4.70;98.10;;;;;;4946079;29;1991;-68
2022/12/05 13:49:36;;;;;;;;;;;4.70;97.60;;;;;;4944166;29;1787;-71
2022/12/05 13:52:06;;;;;;;;;;;4.80;97.80;;;;;;4943038;29;1665;-70
2022/12/05 13:54:43;;;;;;;;;;;4.80;97.40;;;;;;4945765;28;1038;-69
2022/12/05 13:57:25;;;;;;;;;;;4.70;96.90;;;;;;4943746;29;1632;-66
2022/12/05 14:00:05;;;;;;;;;;;4.80;97.40;;;;;;4945133;29;1736;-66
2022/12/05 14:02:51;;;;;;;;;;;4.90;97.30;;;;;;4943081;29;1667;-66
2022/12/05 14:05:36;;;;;;;;;;;4.70;96.70;;;;;;4941215;29;1530;-67
2022/12/05 14:08:18;;;;;;;;;;;4.80;97.90;;;;;;4938880;29;1751;-67
2022/12/05 14:11:05;;;;;;;;;;;5.00;97.60;;;;;;4937910;29;1643;-66
2022/12/05 14:13:42;;;;;;;;;;;5.00;97.50;;;;;;4946605;28;1713;-65
2022/12/05 14:16:28;;;;;;;;;;;4.90;97.40;;;;;;4938767;29;1051;-65
2022/12/05 14:19:02;;;;;;;;;;;5.00;97.80;;;;;;4945212;29;1506;-65
2022/12/05 14:21:36;;;;;;;;;;;4.90;97.40;;;;;;4943110;29;1775;-66
2022/12/05 14:24:07;;;;;;;;;;;4.80;97.60;;;;;;4944577;29;1343;-66
2022/12/05 14:26:41;;;;;;;;;;;4.90;97.30;;;;;;4943166;29;1911;-66
2022/12/05 14:29:24;;;;;;;;;;;4.90;97.40;;;;;;4941669;29;1735;-65
2022/12/05 14:32:00;;;;;;;;;;;4.90;97.40;;;;;;4937624;29;1053;-65
2022/12/05 14:34:32;;;;;;;;;;;4.90;97.60;;;;;;4941079;29;1131;-67
2022/12/05 14:37:01;;;;;;;;;;;4.90;97.40;;;;;;4942659;29;1673;-66
2022/12/05 14:39:37;;;;;;;;;;;4.80;97.00;;;;;;4944989;29;1201;-66
2022/12/05 14:42:07;;;;;;;;;;;4.70;97.50;;;;;;4938286;28;1660;-65
2022/12/05 14:44:36;;;;;;;;;;;4.80;97.30;;;;;;4938877;29;1018;-67
2022/12/05 14:47:04;;;;;;;;;;;4.70;97.50;;;;;;4936888;29;1923;-66
2022/12/05 14:49:51;;;;;;;;;;;4.70;97.50;;;;;;4945686;28;1514;-66
2022/12/05 14:52:21;;;;;;;;;;;4.70;97.10;;;;;;4939376;29;1285;-66
2022/12/05 14:54:49;;;;;;;;;;;4.50;97.80;;;;;;4938483;29;1763;-66
2022/12/05 14:57:17;;;;;;;;;;;4.60;97.50;;;;;;4937843;29;1704;-69
2022/12/05 14:59:50;;;;;;;;;;;4.60;97.60;;;;;;4944540;29;1062;-70
2022/12/05 15:02:23;;;;;;;;;;;4.80;97.90;;;;;;4940780;28;1493;-70
2022/12/05 15:04:52;;;;;;;;;;;4.70;97.40;;;;;;4940767;28;2136;-69
2022/12/05 15:07:21;;;;;;;;;;;4.50;97.60;;;;;;4944455;29;1990;-70
2022/12/05 15:09:55;;;;;;;;;;;4.60;97.80;;;;;;4944314;29;1480;-71
2022/12/05 15:12:26;;;;;;;;;;;4.50;97.50;;;;;;4945052;28;2020;-70
2022/12/05 15:15:00;;;;;;;;;;;4.30;97.30;;;;;;4947017;28;1083;-70
2022/12/05 15:17:32;;;;;;;;;;;4.30;97.70;;;;;;4951491;29;1110;-70
2022/12/05 15:20:02;;;;;;;;;;;4.40;97.90;;;;;;4949797;29;1439;-71
2022/12/05 15:22:33;;;;;;;;;;;4.30;97.10;;;;;;4950050;29;1287;-70
2022/12/05 15:25:13;;;;;;;;;;;4.30;97.50;;;;;;4948681;29;1668;-70
2022/12/05 15:27:50;;;;;;;;;;;4.20;97.20;;;;;;4947905;28;1911;-71
2022/12/05 15:30:19;;;;;;;;;;;4.30;97.80;;;;;;4951077;28;1315;-70